Time;durP1;ratioP1;P1;durP2;ratioP2;P2;SDS_P1;SDS_P2;PMS_P1;PMS_P2;Temp;Humidity;BMP_temperature;BMP_pressure;BME280_temperature;BME280_humidity;BME280_pressure;Samples;Min_cycle;Max_cycle;Signal;HPM_P1;HPM_P2
2022/03/18 00:01:56;;;;;;;3.20;1.70;;;;;;;;;;5153245;27;20275;-72
2022/03/18 00:04:44;;;;;;;3.57;2.40;;;;;;;;;;5154102;27;20784;-72
2022/03/18 00:07:31;;;;;;;2.70;1.70;;;;;;;;;;5162177;27;20282;-73
2022/03/18 00:10:19;;;;;;;3.03;1.70;;;;;;;;;;5158907;27;20231;-72
2022/03/18 00:13:06;;;;;;;4.27;1.87;;;;;;;;;;5146375;27;20264;-71
2022/03/18 00:15:54;;;;;;;3.10;2.00;;;;;;;;;;5153297;27;20240;-72
2022/03/18 00:18:41;;;;;;;2.57;2.27;;;;;;;;;;5162046;27;20675;-72
2022/03/18 00:21:29;;;;;;;2.47;1.93;;;;;;;;;;5150776;27;20204;-72
2022/03/18 00:24:16;;;;;;;4.17;2.13;;;;;;;;;;5162410;27;20760;-72
2022/03/18 00:27:05;;;;;;;2.57;1.60;;;;;;;;;;5152199;27;20744;-72
2022/03/18 00:29:52;;;;;;;3.63;2.10;;;;;;;;;;5154808;27;20209;-72
2022/03/18 00:32:39;;;;;;;3.23;2.00;;;;;;;;;;5147092;27;21185;-74
2022/03/18 00:35:26;;;;;;;3.57;2.17;;;;;;;;;;5154357;27;20224;-72
2022/03/18 00:38:15;;;;;;;3.17;1.80;;;;;;;;;;5159856;27;20256;-72
2022/03/18 00:41:02;;;;;;;3.17;1.87;;;;;;;;;;5158915;27;20329;-72
2022/03/18 00:43:50;;;;;;;3.93;1.90;;;;;;;;;;5161244;27;20293;-72
2022/03/18 00:46:37;;;;;;;2.50;1.83;;;;;;;;;;5156351;27;20207;-72
2022/03/18 00:52:28;;;;;;;3.97;1.83;;;;;;;;;;5154649;27;20251;-72
2022/03/18 00:55:16;;;;;;;3.53;2.03;;;;;;;;;;5153007;27;20356;-72
2022/03/18 00:58:03;;;;;;;4.63;1.70;;;;;;;;;;5157484;27;20222;-72
2022/03/18 01:00:50;;;;;;;2.50;1.80;;;;;;;;;;5155738;27;20200;-71
2022/03/18 01:03:37;;;;;;;3.67;1.83;;;;;;;;;;5161706;27;20633;-72
2022/03/18 01:06:24;;;;;;;2.30;1.80;;;;;;;;;;5157303;27;20224;-72
2022/03/18 01:09:11;;;;;;;3.17;2.00;;;;;;;;;;5159830;27;20287;-72
2022/03/18 01:12:00;;;;;;;1.97;1.77;;;;;;;;;;5152647;27;20656;-72
2022/03/18 01:14:47;;;;;;;3.60;2.20;;;;;;;;;;5153126;27;20224;-72
2022/03/18 01:17:34;;;;;;;3.30;1.97;;;;;;;;;;5157069;27;20233;-72
2022/03/18 01:20:21;;;;;;;3.67;1.90;;;;;;;;;;5162290;27;20675;-71
2022/03/18 01:23:08;;;;;;;2.30;1.67;;;;;;;;;;5158545;27;20204;-72
2022/03/18 01:25:55;;;;;;;3.37;2.23;;;;;;;;;;5157282;27;20282;-72
2022/03/18 01:28:44;;;;;;;3.63;1.93;;;;;;;;;;5149720;27;20207;-72
2022/03/18 01:31:31;;;;;;;2.00;1.80;;;;;;;;;;5151124;27;20695;-72
2022/03/18 01:34:18;;;;;;;4.73;2.00;;;;;;;;;;5151903;27;20211;-72
2022/03/18 01:37:05;;;;;;;2.77;2.07;;;;;;;;;;5158146;27;20334;-72
2022/03/18 01:39:52;;;;;;;2.80;1.73;;;;;;;;;;5157172;27;20201;-72
2022/03/18 01:42:39;;;;;;;2.37;1.67;;;;;;;;;;5162747;27;20723;-72
2022/03/18 01:45:27;;;;;;;3.60;2.10;;;;;;;;;;5154930;27;20597;-72
2022/03/18 01:48:14;;;;;;;5.00;2.00;;;;;;;;;;5160077;27;20309;-72
2022/03/18 01:51:01;;;;;;;3.10;1.70;;;;;;;;;;5154362;27;20207;-72
2022/03/18 01:54:44;;;;;;;1.80;1.70;;;;;;;;;;5152970;27;20548;-72
2022/03/18 01:56:56;;;;;;;2.10;1.57;;;;;;;;;;5155069;27;20204;-72
2022/03/18 01:59:44;;;;;;;2.57;1.83;;;;;;;;;;5161295;27;20202;-72
2022/03/18 02:02:32;;;;;;;3.27;1.97;;;;;;;;;;5160809;27;20203;-72
2022/03/18 02:05:19;;;;;;;1.70;1.60;;;;;;;;;;5153793;27;20204;-71
2022/03/18 02:08:08;;;;;;;2.93;1.80;;;;;;;;;;5163121;27;20212;-72
2022/03/18 02:10:55;;;;;;;3.37;1.80;;;;;;;;;;5150488;27;20216;-71
2022/03/18 02:13:42;;;;;;;3.17;1.80;;;;;;;;;;5158545;27;20932;-72
2022/03/18 02:16:29;;;;;;;3.53;1.63;;;;;;;;;;5153269;27;20372;-72
2022/03/18 02:19:18;;;;;;;3.23;1.57;;;;;;;;;;5156149;27;20736;-72
2022/03/18 02:22:09;;;;;;;2.97;1.80;;;;;;;;;;5153709;27;20229;-72
2022/03/18 02:24:57;;;;;;;2.77;2.07;;;;;;;;;;5153276;27;20272;-71
2022/03/18 02:27:54;;;;;;;4.03;2.00;;;;;;;;;;5153642;27;20223;-72
2022/03/18 02:30:41;;;;;;;3.77;2.10;;;;;;;;;;5155335;27;20745;-72
2022/03/18 02:33:28;;;;;;;4.70;2.00;;;;;;;;;;5156430;27;20345;-73
2022/03/18 02:36:15;;;;;;;3.87;1.97;;;;;;;;;;5154691;27;20356;-72
2022/03/18 02:39:02;;;;;;;3.07;1.73;;;;;;;;;;5149523;27;20552;-72
2022/03/18 02:41:51;;;;;;;2.87;2.03;;;;;;;;;;5155205;27;20792;-72
2022/03/18 02:44:38;;;;;;;3.67;2.30;;;;;;;;;;5149473;27;20229;-72
2022/03/18 02:47:25;;;;;;;3.20;1.83;;;;;;;;;;5151879;27;20324;-72
2022/03/18 02:50:12;;;;;;;3.10;1.43;;;;;;;;;;5156705;27;20204;-72
2022/03/18 02:52:59;;;;;;;3.47;2.03;;;;;;;;;;5157405;27;20286;-72
2022/03/18 02:55:46;;;;;;;2.60;1.87;;;;;;;;;;5161479;27;20307;-72
2022/03/18 02:58:35;;;;;;;2.40;1.87;;;;;;;;;;5152689;27;20270;-72
2022/03/18 03:01:22;;;;;;;3.47;2.03;;;;;;;;;;5160891;27;20214;-72
2022/03/18 03:04:09;;;;;;;3.50;2.57;;;;;;;;;;5154374;27;20697;-72
2022/03/18 03:10:01;;;;;;;4.57;2.17;;;;;;;;;;5151307;27;20204;-72
2022/03/18 03:12:48;;;;;;;5.30;2.17;;;;;;;;;;5150457;27;20458;-72
2022/03/18 03:15:38;;;;;;;3.30;1.97;;;;;;;;;;5148575;27;20316;-72
2022/03/18 03:18:25;;;;;;;2.57;2.23;;;;;;;;;;5152525;27;20227;-72
2022/03/18 03:21:12;;;;;;;4.83;1.90;;;;;;;;;;5156667;27;20287;-72
2022/03/18 03:23:59;;;;;;;3.07;2.10;;;;;;;;;;5157701;27;20356;-71
2022/03/18 03:26:45;;;;;;;3.33;2.10;;;;;;;;;;5155477;27;20388;-71
2022/03/18 03:29:32;;;;;;;4.70;2.30;;;;;;;;;;5159467;27;20682;-72
2022/03/18 03:32:21;;;;;;;3.93;2.00;;;;;;;;;;5156769;27;20308;-72
2022/03/18 03:35:10;;;;;;;4.97;2.50;;;;;;;;;;5157854;27;20635;-71
2022/03/18 03:37:57;;;;;;;3.17;2.03;;;;;;;;;;5151496;27;20204;-72
2022/03/18 03:40:44;;;;;;;4.20;2.07;;;;;;;;;;5165773;27;20264;-72
2022/03/18 03:43:31;;;;;;;4.57;2.40;;;;;;;;;;5157945;27;20266;-71
2022/03/18 03:46:18;;;;;;;4.00;2.43;;;;;;;;;;5160821;27;20802;-72
2022/03/18 03:49:06;;;;;;;3.00;1.87;;;;;;;;;;5159324;27;20766;-72
2022/03/18 03:51:53;;;;;;;4.43;2.37;;;;;;;;;;5157713;27;20700;-72
2022/03/18 03:54:41;;;;;;;5.17;2.40;;;;;;;;;;5160713;27;20275;-72
2022/03/18 03:57:27;;;;;;;4.90;2.37;;;;;;;;;;5152841;27;20208;-76
2022/03/18 04:00:15;;;;;;;3.50;2.10;;;;;;;;;;5157620;27;20216;-72
2022/03/18 04:03:02;;;;;;;3.67;2.20;;;;;;;;;;5166436;27;20207;-72
2022/03/18 04:05:50;;;;;;;3.30;2.40;;;;;;;;;;5155083;27;20204;-72
2022/03/18 04:08:37;;;;;;;4.23;2.40;;;;;;;;;;5163197;27;20207;-72
2022/03/18 04:11:24;;;;;;;4.83;2.20;;;;;;;;;;5154116;27;20241;-71
2022/03/18 04:14:11;;;;;;;3.97;2.47;;;;;;;;;;5159477;27;20204;-73
2022/03/18 04:16:58;;;;;;;5.07;2.27;;;;;;;;;;5146138;27;20234;-71
2022/03/18 04:19:45;;;;;;;4.47;2.53;;;;;;;;;;5151944;27;20316;-71
2022/03/18 04:22:33;;;;;;;3.97;2.13;;;;;;;;;;5159576;27;20208;-72
2022/03/18 04:25:21;;;;;;;3.70;2.70;;;;;;;;;;5160139;27;20280;-72
2022/03/18 04:28:09;;;;;;;4.03;2.30;;;;;;;;;;5155252;27;20218;-72
2022/03/18 04:30:56;;;;;;;3.77;2.30;;;;;;;;;;5154368;27;20211;-72
2022/03/18 04:33:42;;;;;;;4.80;2.70;;;;;;;;;;5154116;27;20272;-72
2022/03/18 04:36:30;;;;;;;2.57;2.17;;;;;;;;;;5156612;27;20737;-72
2022/03/18 04:39:18;;;;;;;2.87;2.43;;;;;;;;;;5156321;27;20204;-71
2022/03/18 04:42:05;;;;;;;4.03;2.50;;;;;;;;;;5164626;27;20273;-73
2022/03/18 04:44:52;;;;;;;3.90;2.47;;;;;;;;;;5163157;27;20212;-72
2022/03/18 04:47:39;;;;;;;4.57;2.30;;;;;;;;;;5154254;27;20255;-72
2022/03/18 04:50:27;;;;;;;3.27;2.50;;;;;;;;;;5159604;27;20599;-72
2022/03/18 04:53:14;;;;;;;4.90;2.40;;;;;;;;;;5158319;27;20228;-72
2022/03/18 04:56:03;;;;;;;3.43;2.10;;;;;;;;;;5157083;27;20215;-73
2022/03/18 04:58:49;;;;;;;4.73;2.50;;;;;;;;;;5155969;27;20680;-72
2022/03/18 05:01:37;;;;;;;3.40;2.37;;;;;;;;;;5161282;27;20279;-72
2022/03/18 05:04:24;;;;;;;2.93;2.20;;;;;;;;;;5150357;27;20211;-72
2022/03/18 05:07:12;;;;;;;5.47;2.63;;;;;;;;;;5157610;27;20232;-74
2022/03/18 05:09:59;;;;;;;4.53;2.60;;;;;;;;;;5150940;27;20354;-72
2022/03/18 05:12:48;;;;;;;5.63;2.50;;;;;;;;;;5161537;27;20251;-72
2022/03/18 05:15:35;;;;;;;5.80;2.67;;;;;;;;;;5159907;27;20460;-71
2022/03/18 05:18:21;;;;;;;4.83;2.57;;;;;;;;;;5154767;27;20285;-72
2022/03/18 05:21:08;;;;;;;4.23;2.47;;;;;;;;;;5152625;27;20675;-72
2022/03/18 05:23:55;;;;;;;3.63;2.77;;;;;;;;;;5156482;27;20230;-72
2022/03/18 05:26:42;;;;;;;3.37;2.30;;;;;;;;;;5161398;27;20674;-72
2022/03/18 05:29:31;;;;;;;3.63;1.97;;;;;;;;;;5152898;27;20239;-72
2022/03/18 05:32:18;;;;;;;3.40;2.40;;;;;;;;;;5160241;27;20273;-72
2022/03/18 05:35:06;;;;;;;4.83;2.53;;;;;;;;;;5160938;27;20297;-72
2022/03/18 05:37:53;;;;;;;3.73;2.10;;;;;;;;;;5152939;27;20269;-72
2022/03/18 05:40:40;;;;;;;3.90;2.50;;;;;;;;;;5157784;27;20276;-72
2022/03/18 05:43:27;;;;;;;3.40;2.50;;;;;;;;;;5156271;27;20309;-72
2022/03/18 05:46:15;;;;;;;3.30;2.43;;;;;;;;;;5159247;27;20596;-72
2022/03/18 05:49:02;;;;;;;3.70;2.00;;;;;;;;;;5156428;27;20210;-72
2022/03/18 05:51:49;;;;;;;4.03;2.37;;;;;;;;;;5150998;27;20229;-72
2022/03/18 05:54:36;;;;;;;3.50;2.30;;;;;;;;;;5161043;27;20202;-72
2022/03/18 05:57:23;;;;;;;3.90;2.70;;;;;;;;;;5150742;27;20220;-71
2022/03/18 06:00:14;;;;;;;4.13;2.43;;;;;;;;;;5155181;27;20212;-71
2022/03/18 06:03:02;;;;;;;4.50;2.53;;;;;;;;;;5150844;27;20553;-71
2022/03/18 06:05:49;;;;;;;4.23;2.50;;;;;;;;;;5161695;27;20204;-72
2022/03/18 06:11:51;;;;;;;2.50;2.00;;;;;;;;;;5149241;27;20665;-72
2022/03/18 06:14:38;;;;;;;4.23;2.50;;;;;;;;;;5156616;27;20201;-72
2022/03/18 06:17:25;;;;;;;5.23;2.67;;;;;;;;;;5158330;27;20283;-72
2022/03/18 06:20:13;;;;;;;3.77;2.23;;;;;;;;;;5156062;27;20295;-72
2022/03/18 06:23:00;;;;;;;4.63;2.47;;;;;;;;;;5164155;27;20231;-72
2022/03/18 06:25:47;;;;;;;4.20;2.40;;;;;;;;;;5154829;27;20219;-71
2022/03/18 06:28:34;;;;;;;4.47;2.67;;;;;;;;;;5153285;27;20208;-73
2022/03/18 06:31:21;;;;;;;4.67;2.57;;;;;;;;;;5149516;27;20306;-72
2022/03/18 06:34:09;;;;;;;4.83;2.40;;;;;;;;;;5159138;27;20231;-72
2022/03/18 06:37:00;;;;;;;4.43;2.30;;;;;;;;;;5159929;27;20223;-72
2022/03/18 06:39:47;;;;;;;4.57;2.53;;;;;;;;;;5154653;27;20205;-71
2022/03/18 06:42:33;;;;;;;3.47;2.27;;;;;;;;;;5154336;27;20316;-73
2022/03/18 06:45:21;;;;;;;5.73;2.50;;;;;;;;;;5154059;27;20197;-67
2022/03/18 06:48:08;;;;;;;2.70;2.40;;;;;;;;;;5161559;27;20204;-68
2022/03/18 06:50:55;;;;;;;4.30;2.70;;;;;;;;;;5164203;27;20208;-69
2022/03/18 06:53:44;;;;;;;4.50;2.60;;;;;;;;;;5159614;27;20220;-67
2022/03/18 06:56:31;;;;;;;5.23;2.40;;;;;;;;;;5153088;27;20614;-67
2022/03/18 06:59:17;;;;;;;5.03;2.70;;;;;;;;;;5164157;27;20664;-68
2022/03/18 07:02:05;;;;;;;3.30;1.97;;;;;;;;;;5157172;27;20289;-67
2022/03/18 07:04:52;;;;;;;5.03;2.57;;;;;;;;;;5165973;27;20301;-67
2022/03/18 07:07:40;;;;;;;3.73;2.17;;;;;;;;;;5157433;27;20254;-67
2022/03/18 07:10:28;;;;;;;3.80;2.60;;;;;;;;;;5164371;27;20212;-68
2022/03/18 07:13:16;;;;;;;4.03;2.60;;;;;;;;;;5156381;27;20664;-67
2022/03/18 07:19:03;;;;;;;3.57;2.67;;;;;;;;;;5156945;27;20214;-67
2022/03/18 07:21:50;;;;;;;3.80;2.50;;;;;;;;;;5154933;27;20690;-67
2022/03/18 07:24:37;;;;;;;3.17;2.13;;;;;;;;;;5153165;27;20298;-67
2022/03/18 07:27:26;;;;;;;3.83;2.30;;;;;;;;;;5153010;27;20572;-67
2022/03/18 07:30:14;;;;;;;4.57;2.53;;;;;;;;;;5161526;27;20330;-67
2022/03/18 07:33:01;;;;;;;4.67;2.90;;;;;;;;;;5157775;27;20687;-66
2022/03/18 07:35:48;;;;;;;4.47;2.80;;;;;;;;;;5157407;27;20778;-67
2022/03/18 07:38:35;;;;;;;4.50;2.83;;;;;;;;;;5156518;27;20215;-68
2022/03/18 07:41:21;;;;;;;3.77;2.60;;;;;;;;;;5149555;27;20316;-67
2022/03/18 07:44:10;;;;;;;4.90;2.70;;;;;;;;;;5152339;27;20245;-67
2022/03/18 07:46:57;;;;;;;3.30;2.27;;;;;;;;;;5160721;27;20353;-67
2022/03/18 07:49:44;;;;;;;4.57;2.27;;;;;;;;;;5160871;27;20228;-67
2022/03/18 07:52:30;;;;;;;4.00;2.50;;;;;;;;;;5156779;27;20272;-66
2022/03/18 07:55:18;;;;;;;2.97;2.50;;;;;;;;;;5157275;27;20228;-67
2022/03/18 07:58:06;;;;;;;4.53;2.40;;;;;;;;;;5154021;27;20236;-67
2022/03/18 08:00:55;;;;;;;4.00;2.43;;;;;;;;;;5156468;27;20198;-68
2022/03/18 08:03:42;;;;;;;5.47;2.80;;;;;;;;;;5156898;27;20199;-67
2022/03/18 08:06:28;;;;;;;4.87;2.33;;;;;;;;;;5160463;27;20292;-67
2022/03/18 08:09:15;;;;;;;4.00;2.20;;;;;;;;;;5157372;27;20262;-66
2022/03/18 08:12:02;;;;;;;3.87;2.47;;;;;;;;;;5160373;27;20209;-67
2022/03/18 08:14:49;;;;;;;2.83;2.00;;;;;;;;;;5159183;27;20202;-77
2022/03/18 08:17:38;;;;;;;3.73;2.13;;;;;;;;;;5150357;27;20230;-68
2022/03/18 08:20:26;;;;;;;4.93;2.17;;;;;;;;;;5156472;27;20233;-67
2022/03/18 08:23:15;;;;;;;4.03;2.60;;;;;;;;;;5155290;27;20209;-67
2022/03/18 08:26:02;;;;;;;5.03;2.47;;;;;;;;;;5159914;27;20701;-71
2022/03/18 08:28:49;;;;;;;3.80;2.43;;;;;;;;;;5155720;27;20210;-68
2022/03/18 08:31:35;;;;;;;4.50;2.40;;;;;;;;;;5157320;27;20210;-67
2022/03/18 08:34:24;;;;;;;2.43;2.10;;;;;;;;;;5155729;27;20210;-68
2022/03/18 08:37:11;;;;;;;3.40;2.20;;;;;;;;;;5159388;27;20219;-67
2022/03/18 08:39:58;;;;;;;4.03;2.37;;;;;;;;;;5163293;27;20282;-68
2022/03/18 08:42:45;;;;;;;4.67;2.60;;;;;;;;;;5160527;27;20227;-67
2022/03/18 08:45:33;;;;;;;4.10;2.20;;;;;;;;;;5163859;27;20243;-67
2022/03/18 08:48:20;;;;;;;2.60;2.00;;;;;;;;;;5150927;27;20287;-68
2022/03/18 08:51:08;;;;;;;4.37;2.33;;;;;;;;;;5164150;27;20247;-68
2022/03/18 08:53:55;;;;;;;4.07;2.33;;;;;;;;;;5156885;27;20227;-68
2022/03/18 08:56:42;;;;;;;3.30;1.93;;;;;;;;;;5153122;27;20315;-68
2022/03/18 08:59:29;;;;;;;4.00;2.43;;;;;;;;;;5156991;27;20234;-68
2022/03/18 09:02:16;;;;;;;3.10;2.20;;;;;;;;;;5151475;27;20290;-68
2022/03/18 09:05:04;;;;;;;3.63;2.27;;;;;;;;;;5148927;27;20283;-68
2022/03/18 09:07:52;;;;;;;4.63;2.33;;;;;;;;;;5156496;27;20652;-68
2022/03/18 09:10:39;;;;;;;3.00;1.87;;;;;;;;;;5153743;27;20257;-75
2022/03/18 09:13:26;;;;;;;4.10;2.17;;;;;;;;;;5162714;27;20208;-68
2022/03/18 09:16:14;;;;;;;3.83;1.80;;;;;;;;;;5151730;27;20227;-69
2022/03/18 09:19:01;;;;;;;3.67;2.07;;;;;;;;;;5157404;27;20590;-68
2022/03/18 09:21:48;;;;;;;2.40;1.97;;;;;;;;;;5154964;27;20679;-68
2022/03/18 09:24:38;;;;;;;4.33;2.20;;;;;;;;;;5155093;27;20199;-68
2022/03/18 09:27:25;;;;;;;4.10;1.90;;;;;;;;;;5160488;27;20204;-68
2022/03/18 09:30:13;;;;;;;2.53;1.97;;;;;;;;;;5150539;27;20210;-68
2022/03/18 09:33:01;;;;;;;2.27;1.80;;;;;;;;;;5150435;27;20245;-69
2022/03/18 09:35:48;;;;;;;2.80;1.53;;;;;;;;;;5152058;27;20215;-68
2022/03/18 09:38:36;;;;;;;2.83;2.07;;;;;;;;;;5158227;27;20307;-68
2022/03/18 09:41:24;;;;;;;3.60;1.90;;;;;;;;;;5156946;27;20219;-67
2022/03/18 09:44:12;;;;;;;3.43;2.07;;;;;;;;;;5161402;27;20327;-67
2022/03/18 09:47:00;;;;;;;3.07;1.90;;;;;;;;;;5147735;27;20213;-69
2022/03/18 09:49:48;;;;;;;2.93;2.10;;;;;;;;;;5156063;27;20211;-68
2022/03/18 09:52:35;;;;;;;3.83;1.80;;;;;;;;;;5152540;27;20228;-67
2022/03/18 09:55:22;;;;;;;3.90;1.93;;;;;;;;;;5161120;27;20207;-67
2022/03/18 09:58:13;;;;;;;3.07;2.07;;;;;;;;;;5157157;27;20263;-68
2022/03/18 10:01:01;;;;;;;3.03;1.83;;;;;;;;;;5156779;27;20212;-67
2022/03/18 10:03:50;;;;;;;2.40;1.80;;;;;;;;;;5153561;27;20228;-67
2022/03/18 10:06:38;;;;;;;1.97;1.57;;;;;;;;;;5151709;27;20204;-68
2022/03/18 10:09:28;;;;;;;1.87;1.50;;;;;;;;;;5146792;27;20216;-67
2022/03/18 10:12:33;;;;;;;3.10;1.70;;;;;;;;;;5165181;27;20206;-68
2022/03/18 10:15:24;;;;;;;2.23;1.60;;;;;;;;;;5149599;27;20250;-67
2022/03/18 10:18:12;;;;;;;2.40;1.90;;;;;;;;;;5145459;27;20233;-67
2022/03/18 10:21:09;;;;;;;3.00;1.77;;;;;;;;;;5151953;27;20660;-67
2022/03/18 10:24:08;;;;;;;1.97;1.73;;;;;;;;;;5157078;27;20280;-68
2022/03/18 10:27:10;;;;;;;2.10;1.50;;;;;;;;;;5154593;27;20209;-68
2022/03/18 10:29:57;;;;;;;1.70;1.37;;;;;;;;;;5155616;27;20197;-67
2022/03/18 10:32:49;;;;;;;3.83;1.93;;;;;;;;;;5157545;27;20286;-68
2022/03/18 10:38:42;;;;;;;2.13;1.50;;;;;;;;;;5154930;27;20222;-68
2022/03/18 10:41:29;;;;;;;2.00;1.47;;;;;;;;;;5159853;27;20660;-67
2022/03/18 10:44:17;;;;;;;2.33;1.43;;;;;;;;;;5165508;27;20236;-68
2022/03/18 10:47:04;;;;;;;2.57;1.60;;;;;;;;;;5155161;27;20213;-67
2022/03/18 10:49:54;;;;;;;2.97;1.67;;;;;;;;;;5153790;27;20208;-67
2022/03/18 10:53:01;;;;;;;3.97;1.67;;;;;;;;;;5154592;27;20225;-68
2022/03/18 10:55:48;;;;;;;2.87;1.50;;;;;;;;;;5157973;27;20242;-68
2022/03/18 10:58:35;;;;;;;2.00;1.43;;;;;;;;;;5164919;27;20255;-67
2022/03/18 11:01:25;;;;;;;3.27;1.47;;;;;;;;;;5159660;27;20203;-67
2022/03/18 11:04:12;;;;;;;2.93;1.30;;;;;;;;;;5166876;27;20300;-67
2022/03/18 11:13:16;;;;;;;2.70;1.60;;;;;;;;;;5160952;27;20210;-67
2022/03/18 11:16:04;;;;;;;2.80;1.30;;;;;;;;;;5154525;27;20202;-67
2022/03/18 11:18:51;;;;;;;2.50;1.43;;;;;;;;;;5158403;27;20310;-67
2022/03/18 11:21:39;;;;;;;2.57;1.47;;;;;;;;;;5160486;27;20230;-67
2022/03/18 11:24:27;;;;;;;1.80;1.30;;;;;;;;;;5162952;27;20208;-67
2022/03/18 11:27:14;;;;;;;2.27;1.50;;;;;;;;;;5154017;27;20267;-73
2022/03/18 11:30:22;;;;;;;1.83;1.50;;;;;;;;;;5159221;27;20730;-67
2022/03/18 11:33:19;;;;;;;4.10;1.53;;;;;;;;;;5159810;27;20281;-68
2022/03/18 11:36:15;;;;;;;1.80;1.40;;;;;;;;;;5156608;27;20215;-67
2022/03/18 11:39:06;;;;;;;2.33;1.60;;;;;;;;;;5149153;27;20226;-67
2022/03/18 11:41:56;;;;;;;2.47;1.47;;;;;;;;;;5158547;27;20215;-67
2022/03/18 11:45:01;;;;;;;2.53;1.43;;;;;;;;;;5116831;27;20672;-67
2022/03/18 11:47:49;;;;;;;2.40;1.40;;;;;;;;;;5117301;27;20262;-68
2022/03/18 11:50:38;;;;;;;2.60;1.10;;;;;;;;;;5119585;27;20294;-67
2022/03/18 11:53:51;;;;;;;2.73;1.37;;;;;;;;;;5116341;27;20305;-67
2022/03/18 11:56:44;;;;;;;2.27;0.97;;;;;;;;;;5111638;27;20277;-68
2022/03/18 11:59:40;;;;;;;2.37;1.60;;;;;;;;;;5117582;27;20224;-66
2022/03/18 12:02:32;;;;;;;2.13;1.33;;;;;;;;;;5113925;27;20287;-67
2022/03/18 12:05:20;;;;;;;1.10;1.00;;;;;;;;;;5112013;27;20207;-67
2022/03/18 12:08:07;;;;;;;2.03;1.30;;;;;;;;;;5111674;27;20205;-67
2022/03/18 12:10:54;;;;;;;2.00;1.23;;;;;;;;;;5117224;27;20280;-67
2022/03/18 12:13:41;;;;;;;2.67;1.43;;;;;;;;;;5111406;27;20644;-67
2022/03/18 12:16:30;;;;;;;1.50;1.37;;;;;;;;;;5111967;27;20211;-67
2022/03/18 12:19:17;;;;;;;1.70;1.07;;;;;;;;;;5113408;27;20310;-67
2022/03/18 12:22:06;;;;;;;2.23;1.30;;;;;;;;;;5107929;27;20317;-67
2022/03/18 12:24:54;;;;;;;1.97;1.30;;;;;;;;;;5116113;27;20208;-67
2022/03/18 12:27:44;;;;;;;1.27;1.00;;;;;;;;;;5108302;27;20284;-67
2022/03/18 12:30:32;;;;;;;1.27;1.10;;;;;;;;;;5114677;27;20558;-67
2022/03/18 12:33:20;;;;;;;1.13;1.00;;;;;;;;;;5116295;27;20233;-67
2022/03/18 12:36:08;;;;;;;1.43;1.10;;;;;;;;;;5119554;27;20230;-67
2022/03/18 12:39:10;;;;;;;1.83;0.80;;;;;;;;;;5110482;27;20297;-67
2022/03/18 12:42:09;;;;;;;2.07;1.13;;;;;;;;;;5113633;27;20245;-67
2022/03/18 12:44:59;;;;;;;1.43;1.10;;;;;;;;;;5114160;27;20200;-66
2022/03/18 12:47:46;;;;;;;2.03;1.37;;;;;;;;;;5112612;27;20196;-67
2022/03/18 12:50:36;;;;;;;1.00;0.80;;;;;;;;;;5118344;27;20261;-66
2022/03/18 12:53:26;;;;;;;2.57;1.20;;;;;;;;;;5111173;27;20229;-66
2022/03/18 12:56:17;;;;;;;3.03;1.30;;;;;;;;;;5114862;27;20216;-67
2022/03/18 12:59:05;;;;;;;2.87;1.07;;;;;;;;;;5119559;27;20270;-66
2022/03/18 13:01:56;;;;;;;1.93;1.20;;;;;;;;;;5111196;27;20235;-66
2022/03/18 13:04:43;;;;;;;1.27;1.00;;;;;;;;;;5114495;27;20284;-67
2022/03/18 13:07:31;;;;;;;1.63;1.20;;;;;;;;;;5115767;27;20210;-66
2022/03/18 13:10:22;;;;;;;1.50;1.10;;;;;;;;;;5117702;27;20228;-68
2022/03/18 13:13:10;;;;;;;2.40;1.10;;;;;;;;;;5107468;27;20242;-67
2022/03/18 13:16:01;;;;;;;1.37;1.10;;;;;;;;;;5111940;27;20210;-67
2022/03/18 13:18:52;;;;;;;1.50;1.20;;;;;;;;;;5104329;27;20228;-66
2022/03/18 13:21:43;;;;;;;2.03;1.30;;;;;;;;;;5107781;27;20211;-67
2022/03/18 13:24:32;;;;;;;1.00;0.87;;;;;;;;;;5114957;27;20750;-67
2022/03/18 13:27:21;;;;;;;1.20;1.10;;;;;;;;;;5117389;27;20214;-67
2022/03/18 13:33:16;;;;;;;1.53;0.80;;;;;;;;;;5110949;27;20215;-67
2022/03/18 13:36:03;;;;;;;1.50;1.20;;;;;;;;;;5115098;27;20285;-67
2022/03/18 13:38:51;;;;;;;1.80;1.30;;;;;;;;;;5113114;27;20268;-67
2022/03/18 13:41:48;;;;;;;2.00;1.23;;;;;;;;;;5114873;27;20237;-68
2022/03/18 13:44:45;;;;;;;1.20;1.10;;;;;;;;;;5114863;27;20307;-67
2022/03/18 13:47:45;;;;;;;1.87;1.57;;;;;;;;;;5118973;27;20233;-67
2022/03/18 13:50:46;;;;;;;2.97;1.23;;;;;;;;;;5108592;27;20208;-67
2022/03/18 13:53:35;;;;;;;2.50;1.17;;;;;;;;;;5101702;28;20318;-67
2022/03/18 13:56:22;;;;;;;1.37;1.23;;;;;;;;;;5121505;27;20207;-68
2022/03/18 13:59:12;;;;;;;1.77;1.17;;;;;;;;;;5122816;27;20722;-68
2022/03/18 14:02:02;;;;;;;2.23;1.60;;;;;;;;;;5108951;27;20291;-67
2022/03/18 14:04:50;;;;;;;1.60;1.20;;;;;;;;;;5110421;28;20211;-68
2022/03/18 14:07:45;;;;;;;2.03;1.10;;;;;;;;;;5107614;28;20658;-66
2022/03/18 14:10:40;;;;;;;1.93;1.17;;;;;;;;;;5114050;28;20237;-69
2022/03/18 14:13:30;;;;;;;1.73;1.40;;;;;;;;;;5112351;28;20207;-69
2022/03/18 14:16:20;;;;;;;1.83;1.30;;;;;;;;;;5111884;28;20195;-68
2022/03/18 14:19:07;;;;;;;2.10;1.30;;;;;;;;;;5110624;28;20225;-67
2022/03/18 14:21:54;;;;;;;2.03;1.30;;;;;;;;;;5109542;28;20291;-69
2022/03/18 14:24:40;;;;;;;1.23;1.00;;;;;;;;;;5113076;28;20737;-67
2022/03/18 14:27:28;;;;;;;2.00;1.20;;;;;;;;;;5116416;28;20722;-67
2022/03/18 14:30:17;;;;;;;1.23;1.03;;;;;;;;;;5114757;28;20338;-67
2022/03/18 14:33:05;;;;;;;2.07;1.10;;;;;;;;;;5116546;28;20210;-67
2022/03/18 14:35:54;;;;;;;1.60;1.00;;;;;;;;;;5109010;28;20230;-68
2022/03/18 14:38:43;;;;;;;1.30;1.20;;;;;;;;;;5121203;28;20257;-67
2022/03/18 14:41:30;;;;;;;1.87;1.20;;;;;;;;;;5108656;28;20616;-67
2022/03/18 14:44:18;;;;;;;2.67;1.00;;;;;;;;;;5148298;27;21017;-67
2022/03/18 14:47:05;;;;;;;2.67;1.30;;;;;;;;;;5159600;27;20205;-67
2022/03/18 14:49:54;;;;;;;1.63;1.20;;;;;;;;;;5152622;27;20258;-67
2022/03/18 14:52:41;;;;;;;1.80;1.30;;;;;;;;;;5152818;27;20223;-75
2022/03/18 14:58:33;;;;;;;1.20;0.90;;;;;;;;;;5149906;27;20247;-68
2022/03/18 15:01:20;;;;;;;1.63;1.20;;;;;;;;;;5153553;27;20227;-68
2022/03/18 15:04:07;;;;;;;1.53;1.27;;;;;;;;;;5157212;27;20571;-68
2022/03/18 15:06:56;;;;;;;1.57;1.00;;;;;;;;;;5155963;27;20231;-67
2022/03/18 15:09:43;;;;;;;1.13;1.03;;;;;;;;;;5165735;27;20201;-67
2022/03/18 15:12:30;;;;;;;2.00;1.10;;;;;;;;;;5149616;27;20219;-67
2022/03/18 15:15:18;;;;;;;2.43;1.50;;;;;;;;;;5167451;27;20283;-67
2022/03/18 15:18:07;;;;;;;1.00;0.97;;;;;;;;;;5151713;27;20669;-67
2022/03/18 15:20:54;;;;;;;1.40;1.10;;;;;;;;;;5158509;27;20574;-67
2022/03/18 15:23:42;;;;;;;1.30;0.90;;;;;;;;;;5154951;27;20208;-67
2022/03/18 15:26:29;;;;;;;0.87;0.87;;;;;;;;;;5157656;27;20691;-67
2022/03/18 15:29:16;;;;;;;0.87;0.70;;;;;;;;;;5157635;27;20280;-68
2022/03/18 15:32:04;;;;;;;1.63;0.93;;;;;;;;;;5154976;27;20208;-73
2022/03/18 15:34:51;;;;;;;1.53;0.97;;;;;;;;;;5161004;27;20235;-67
2022/03/18 15:37:38;;;;;;;1.47;1.00;;;;;;;;;;5160164;27;20222;-67
2022/03/18 15:40:27;;;;;;;2.57;1.10;;;;;;;;;;5160173;27;20319;-67
2022/03/18 15:43:15;;;;;;;1.70;1.00;;;;;;;;;;5151056;27;20232;-67
2022/03/18 15:46:04;;;;;;;1.27;0.80;;;;;;;;;;5149840;27;20205;-67
2022/03/18 15:48:51;;;;;;;1.63;1.30;;;;;;;;;;5165787;27;20648;-67
2022/03/18 15:51:38;;;;;;;1.47;0.97;;;;;;;;;;5159956;27;20232;-67
2022/03/18 15:54:26;;;;;;;1.10;1.00;;;;;;;;;;5151843;27;20243;-68
2022/03/18 15:57:15;;;;;;;1.10;1.00;;;;;;;;;;5155765;27;20284;-68
2022/03/18 16:00:02;;;;;;;0.80;0.80;;;;;;;;;;5155719;27;20276;-67
2022/03/18 16:02:50;;;;;;;1.43;0.90;;;;;;;;;;5159737;27;20203;-68
2022/03/18 16:05:37;;;;;;;1.73;1.13;;;;;;;;;;5160707;27;20560;-67
2022/03/18 16:08:24;;;;;;;1.73;0.90;;;;;;;;;;5158687;27;20215;-70
2022/03/18 16:11:12;;;;;;;1.40;0.80;;;;;;;;;;5155522;27;20224;-67
2022/03/18 16:14:01;;;;;;;1.20;0.93;;;;;;;;;;5157860;27;20263;-65
2022/03/18 16:16:48;;;;;;;1.23;1.10;;;;;;;;;;5153900;27;20211;-69
2022/03/18 16:19:36;;;;;;;1.83;1.17;;;;;;;;;;5156756;27;20348;-68
2022/03/18 16:22:33;;;;;;;1.27;1.00;;;;;;;;;;5148128;27;20289;-65
2022/03/18 16:25:26;;;;;;;1.90;0.90;;;;;;;;;;5146425;27;20444;-68
2022/03/18 16:28:13;;;;;;;2.17;1.20;;;;;;;;;;5157493;27;20199;-69
2022/03/18 16:31:01;;;;;;;0.90;0.90;;;;;;;;;;5154775;27;20277;-68
2022/03/18 16:33:50;;;;;;;1.63;1.37;;;;;;;;;;5160173;27;20210;-68
2022/03/18 16:36:37;;;;;;;1.23;1.13;;;;;;;;;;5147392;27;20210;-68
2022/03/18 16:39:24;;;;;;;0.87;0.80;;;;;;;;;;5155993;27;20226;-68
2022/03/18 16:42:11;;;;;;;1.17;0.87;;;;;;;;;;5155881;27;20304;-67
2022/03/18 16:44:59;;;;;;;1.47;1.13;;;;;;;;;;5153376;27;20235;-67
2022/03/18 16:50:52;;;;;;;1.60;1.30;;;;;;;;;;5155875;27;20667;-68
2022/03/18 16:53:39;;;;;;;1.27;1.17;;;;;;;;;;5154981;27;20708;-67
2022/03/18 16:56:26;;;;;;;0.77;0.70;;;;;;;;;;5154592;27;20567;-68
2022/03/18 16:59:13;;;;;;;1.30;1.17;;;;;;;;;;5158257;27;20830;-67
2022/03/18 17:02:00;;;;;;;3.73;1.00;;;;;;;;;;5157429;27;20202;-66
2022/03/18 17:04:49;;;;;;;1.73;1.13;;;;;;;;;;5151919;27;20202;-67
2022/03/18 17:07:35;;;;;;;0.80;0.77;;;;;;;;;;5160424;27;20325;-67
2022/03/18 17:10:23;;;;;;;2.17;1.33;;;;;;;;;;5159998;27;20285;-68
2022/03/18 17:13:10;;;;;;;1.47;0.90;;;;;;;;;;5153006;27;20303;-68
2022/03/18 17:15:57;;;;;;;2.60;1.10;;;;;;;;;;5165807;27;21027;-67
2022/03/18 17:18:47;;;;;;;1.40;1.00;;;;;;;;;;5151355;27;20211;-67
2022/03/18 17:21:37;;;;;;;2.03;1.00;;;;;;;;;;5158663;27;20783;-67